createdAt,value
2019-01-11T04:31:59.769Z,25.67
2019-01-11T04:34:32.639Z,26.97
2019-01-11T04:37:05.307Z,27.23
2019-01-11T04:39:37.957Z,28.23
2019-01-11T04:42:10.616Z,28.77
2019-01-11T04:44:43.254Z,28.43
2019-01-11T04:47:15.919Z,28.17
2019-01-11T04:49:48.559Z,27.90
2019-01-11T04:52:21.214Z,30.53
2019-01-11T04:54:53.858Z,30.03
2019-01-11T04:57:26.519Z,29.77
2019-01-11T04:59:59.158Z,29.87
2019-01-11T05:02:31.823Z,28.37
2019-01-11T05:05:04.928Z,28.73
2019-01-11T05:07:37.588Z,29.70
2019-01-11T05:10:11.071Z,29.27
2019-01-11T05:12:43.735Z,28.53
2019-01-11T05:15:16.385Z,31.77
2019-01-11T05:17:49.272Z,31.50
2019-01-11T05:20:21.932Z,30.63
2019-01-11T05:22:54.592Z,29.87
2019-01-11T05:25:27.225Z,28.73
2019-01-11T05:27:59.887Z,29.53
2019-01-11T05:30:32.526Z,29.37
2019-01-11T05:33:05.192Z,29.80
2019-01-11T05:35:37.837Z,31.23
2019-01-11T05:38:10.491Z,31.20
2019-01-11T05:40:43.126Z,31.37
2019-01-11T05:43:16.019Z,31.67
2019-01-11T05:45:48.662Z,33.17
2019-01-11T05:48:21.550Z,30.77
2019-01-11T05:50:54.294Z,30.63
2019-01-11T05:53:26.959Z,29.67
2019-01-11T05:55:59.600Z,29.83
2019-01-11T05:58:32.264Z,30.00
2019-01-11T06:01:04.919Z,30.13
2019-01-11T06:03:37.582Z,29.10
2019-01-11T06:06:10.239Z,28.60
2019-01-11T06:08:42.891Z,30.30
2019-01-11T06:11:15.530Z,28.47
2019-01-11T06:13:48.426Z,29.83
2019-01-11T06:16:21.061Z,27.97
2019-01-11T06:18:53.747Z,28.77
2019-01-11T06:21:26.406Z,27.20
2019-01-11T06:23:59.066Z,27.47
2019-01-11T06:26:31.703Z,30.07
2019-01-11T06:29:04.363Z,31.17
2019-01-11T06:31:37.018Z,29.20
2019-01-11T06:34:09.915Z,29.17
2019-01-11T06:36:42.557Z,29.13
2019-01-11T06:39:16.344Z,29.27
2019-01-11T06:41:48.998Z,29.10
2019-01-11T06:44:21.654Z,27.20
2019-01-11T06:46:54.530Z,29.87
2019-01-11T06:49:27.178Z,29.50
2019-01-11T06:51:59.826Z,27.03
2019-01-11T06:54:32.478Z,26.83
2019-01-11T06:57:05.159Z,27.23
2019-01-11T06:59:37.833Z,28.23
2019-01-11T07:02:10.482Z,27.93
2019-01-11T07:04:43.371Z,27.80
2019-01-11T07:07:16.006Z,27.80
2019-01-11T07:09:48.909Z,27.73
2019-01-11T07:12:21.542Z,26.37
2019-01-11T07:14:54.214Z,25.13
2019-01-11T07:17:26.854Z,26.23
2019-01-11T07:20:05.513Z,26.57
2019-01-11T07:22:34.495Z,24.60
2019-01-11T07:25:07.414Z,26.23
2019-01-11T07:27:40.058Z,25.23
2019-01-11T07:30:12.738Z,25.80
2019-01-11T07:32:45.386Z,24.40
2019-01-11T07:35:18.030Z,24.87
2019-01-11T07:37:50.683Z,26.07
2019-01-11T07:40:23.395Z,25.00
2019-01-11T07:42:56.047Z,23.63
2019-01-11T07:45:28.935Z,25.20
2019-01-11T07:48:01.598Z,26.63
2019-01-11T07:50:34.271Z,25.93
2019-01-11T07:53:07.647Z,26.33
2019-01-11T07:55:40.303Z,25.40
2019-01-11T07:58:12.959Z,25.97
2019-01-11T08:00:45.638Z,25.03
2019-01-11T08:03:18.307Z,25.03
2019-01-11T08:05:50.974Z,26.00
2019-01-11T08:08:23.663Z,24.40
2019-01-11T08:10:56.670Z,25.70
2019-01-11T08:13:29.330Z,26.27
2019-01-11T08:16:01.999Z,25.87
2019-01-11T08:18:34.660Z,28.17
2019-01-11T08:21:07.308Z,25.67
2019-01-11T08:23:39.947Z,25.80
2019-01-11T08:26:12.642Z,25.63
2019-01-11T08:28:45.528Z,26.50
2019-01-11T08:31:18.434Z,26.03
2019-01-11T08:33:51.075Z,25.27
2019-01-11T08:36:24.214Z,25.90
2019-01-11T08:38:56.853Z,26.87
2019-01-11T08:41:29.526Z,27.30
2019-01-11T08:44:02.182Z,25.83
2019-01-11T08:46:34.853Z,25.07
2019-01-11T08:49:07.490Z,25.37
2019-01-11T08:51:40.150Z,24.87
2019-01-11T08:54:12.818Z,24.73
2019-01-11T08:56:45.488Z,23.33
2019-01-11T08:59:18.146Z,24.37
2019-01-11T09:01:51.057Z,23.90
2019-01-11T09:04:23.710Z,24.30
2019-01-11T09:06:56.380Z,23.20
2019-01-11T09:09:29.030Z,23.10
2019-01-11T09:12:01.697Z,24.70
2019-01-11T09:14:34.338Z,23.73
2019-01-11T09:17:06.994Z,23.20
2019-01-11T09:19:39.644Z,23.00
2019-01-11T09:22:12.347Z,22.13
2019-01-11T09:24:45.311Z,23.53
2019-01-11T09:27:17.978Z,23.27
2019-01-11T09:29:50.638Z,23.97
2019-01-11T09:32:23.551Z,22.90
2019-01-11T09:34:56.203Z,23.13
2019-01-11T09:37:28.866Z,23.70
2019-01-11T09:40:01.542Z,21.23
2019-01-11T09:42:34.906Z,22.60
2019-01-11T09:45:07.591Z,21.40
2019-01-11T09:47:40.479Z,20.67
2019-01-11T09:50:13.168Z,20.87
2019-01-11T09:52:45.830Z,21.90
2019-01-11T09:55:18.470Z,21.47
2019-01-11T09:57:51.122Z,20.87
2019-01-11T10:00:24.354Z,18.77
2019-01-11T10:02:57.007Z,20.20
2019-01-11T10:05:29.887Z,20.63
2019-01-11T10:08:02.598Z,18.90
2019-01-11T10:10:35.263Z,20.00
2019-01-11T10:13:07.918Z,21.00
2019-01-11T10:15:40.562Z,19.97
2019-01-11T10:18:13.223Z,19.93
2019-01-11T10:20:46.104Z,19.77
2019-01-11T10:23:18.986Z,19.70
2019-01-11T10:25:51.870Z,19.47
2019-01-11T10:28:24.754Z,19.90
2019-01-11T10:31:00.677Z,21.00
2019-01-11T10:33:36.127Z,19.93
2019-01-11T10:36:06.186Z,20.33
2019-01-11T10:38:39.070Z,21.17
2019-01-11T10:41:11.736Z,21.50
2019-01-11T10:43:44.397Z,21.60
2019-01-11T10:46:17.038Z,21.73
2019-01-11T10:48:49.706Z,19.83
2019-01-11T10:51:28.033Z,20.60
2019-01-11T10:53:57.002Z,20.20
2019-01-11T10:56:29.638Z,20.53
2019-01-11T10:59:02.298Z,20.73
2019-01-11T11:01:34.954Z,20.50
2019-01-11T11:04:07.611Z,21.20
2019-01-11T11:06:40.254Z,20.87
2019-01-11T11:09:12.914Z,21.37
2019-01-11T11:11:45.566Z,21.67
2019-01-11T11:14:18.246Z,21.40
2019-01-11T11:16:50.887Z,22.43
2019-01-11T11:19:23.554Z,23.40
2019-01-11T11:21:56.201Z,22.17
2019-01-11T11:24:28.894Z,22.43
2019-01-11T11:27:01.542Z,23.00
2019-01-11T11:29:34.199Z,23.83
2019-01-11T11:32:07.082Z,23.70
2019-01-11T11:34:40.018Z,22.33
2019-01-11T11:37:12.662Z,23.10
2019-01-11T11:39:45.378Z,24.00
2019-01-11T11:42:19.013Z,23.47
2019-01-11T11:44:51.686Z,23.73
2019-01-11T11:47:24.335Z,21.30
2019-01-11T11:49:56.992Z,23.40
2019-01-11T11:52:29.642Z,22.37
2019-01-11T11:55:02.397Z,21.30
2019-01-11T11:57:35.040Z,22.27
2019-01-11T12:00:10.918Z,22.30
2019-01-11T12:02:43.804Z,23.03
2019-01-11T12:05:16.509Z,22.50
2019-01-11T12:07:49.391Z,22.50
2019-01-11T12:10:22.278Z,22.23
2019-01-11T12:12:55.178Z,24.20
2019-01-11T12:15:27.910Z,24.20
2019-01-11T12:18:00.790Z,23.57
2019-01-11T12:20:33.466Z,23.93
2019-01-11T12:23:06.115Z,23.27
2019-01-11T12:25:38.770Z,22.97
2019-01-11T12:28:12.533Z,26.10
2019-01-11T12:30:45.486Z,27.17
2019-01-11T12:33:18.138Z,24.40
2019-01-11T12:35:51.022Z,24.47
2019-01-11T12:38:23.755Z,24.23
2019-01-11T12:40:56.402Z,23.77
2019-01-11T12:43:29.054Z,24.00
2019-01-11T12:46:01.709Z,23.17
2019-01-11T12:48:34.594Z,25.27
2019-01-11T12:51:07.299Z,24.27
2019-01-11T12:53:39.935Z,23.47
2019-01-11T12:56:12.591Z,25.37
2019-01-11T12:58:45.238Z,25.13
2019-01-11T13:01:18.134Z,24.60
2019-01-11T13:03:50.799Z,25.87
2019-01-11T13:06:23.443Z,23.80
2019-01-11T13:08:56.094Z,24.93
2019-01-11T13:11:28.758Z,22.30
2019-01-11T13:14:01.411Z,23.40
2019-01-11T13:16:34.070Z,23.63
2019-01-11T13:19:06.958Z,24.90
2019-01-11T13:21:39.631Z,26.43
2019-01-11T13:24:12.295Z,25.97
2019-01-11T13:26:44.962Z,25.67
2019-01-11T13:29:17.610Z,27.10
2019-01-11T13:31:50.299Z,27.30
2019-01-11T13:34:23.166Z,26.67
2019-01-11T13:36:55.833Z,24.63
2019-01-11T13:39:28.479Z,27.67
2019-01-11T13:42:01.126Z,24.93
2019-01-11T13:44:33.766Z,25.17
2019-01-11T13:47:06.419Z,24.80
2019-01-11T13:49:39.140Z,25.20
2019-01-11T13:52:11.798Z,25.57
2019-01-11T13:54:44.438Z,25.17
2019-01-11T13:57:17.093Z,25.83
2019-01-11T13:59:49.763Z,25.03
2019-01-11T14:02:22.409Z,22.60
2019-01-11T14:04:55.049Z,23.47
2019-01-11T14:07:27.699Z,21.90
2019-01-11T14:10:00.342Z,22.13
2019-01-11T14:12:33.007Z,21.17
2019-01-11T14:15:05.829Z,21.63
2019-01-11T14:17:38.479Z,20.53
2019-01-11T14:20:11.147Z,20.53
2019-01-11T14:22:43.794Z,18.53
2019-01-11T14:25:17.198Z,19.77
2019-01-11T14:27:49.905Z,20.43
2019-01-11T14:30:22.546Z,20.20
2019-01-11T14:32:55.206Z,19.30
2019-01-11T14:35:27.857Z,20.13
2019-01-11T14:38:00.498Z,21.13
2019-01-11T14:40:33.137Z,19.47
2019-01-11T14:43:05.786Z,20.30
2019-01-11T14:45:39.270Z,19.93
2019-01-11T14:48:12.046Z,20.60
2019-01-11T14:50:44.926Z,18.90
2019-01-11T14:53:17.589Z,18.73
2019-01-11T14:55:56.044Z,21.17
2019-01-11T14:58:28.672Z,20.37
2019-01-11T15:00:59.213Z,20.73
2019-01-11T15:03:31.854Z,19.97
2019-01-11T15:06:04.543Z,20.13
2019-01-11T15:08:37.212Z,21.47
2019-01-11T15:11:09.850Z,21.97
2019-01-11T15:13:42.498Z,21.63
2019-01-11T15:16:15.134Z,21.60
2019-01-11T15:18:47.790Z,20.73
2019-01-11T15:21:20.430Z,21.57
2019-01-11T15:23:53.111Z,20.70
2019-01-11T15:26:25.750Z,21.00
2019-01-11T15:28:58.407Z,21.53
2019-01-11T15:31:31.042Z,21.20
2019-01-11T15:34:03.703Z,21.40
2019-01-11T15:36:36.338Z,22.17
2019-01-11T15:39:08.992Z,20.97
2019-01-11T15:41:41.625Z,21.43
2019-01-11T15:44:14.291Z,22.43
2019-01-11T15:46:46.930Z,22.40
2019-01-11T15:49:19.591Z,21.30
2019-01-11T15:51:52.490Z,21.53
2019-01-11T15:54:25.198Z,21.13
2019-01-11T15:56:57.879Z,20.67
2019-01-11T15:59:30.531Z,18.47
2019-01-11T16:02:03.186Z,18.97
2019-01-11T16:04:36.134Z,18.57
2019-01-11T16:07:08.775Z,19.10
2019-01-11T16:09:55.382Z,18.57
2019-01-11T16:12:40.229Z,18.47
2019-01-11T16:15:40.559Z,19.43
2019-01-11T16:18:20.174Z,19.53
2019-01-11T16:20:52.825Z,20.43
2019-01-11T16:23:25.493Z,20.40
2019-01-11T16:25:58.146Z,20.17
2019-01-11T16:28:30.821Z,19.97
2019-01-11T16:31:03.490Z,19.63
2019-01-11T16:33:36.150Z,17.73
2019-01-11T16:36:08.809Z,19.17
2019-01-11T16:38:41.454Z,19.27
2019-01-11T16:41:14.112Z,19.00
2019-01-11T16:43:46.742Z,20.17
2019-01-11T16:46:19.409Z,17.63
2019-01-11T16:48:52.069Z,17.63
2019-01-11T16:51:24.726Z,18.30
2019-01-11T16:53:57.371Z,18.47
2019-01-11T16:56:30.022Z,17.33
2019-01-11T16:59:02.746Z,22.57
2019-01-11T17:01:35.394Z,16.73
2019-01-11T17:04:08.034Z,16.43
2019-01-11T17:06:40.707Z,16.40
2019-01-11T17:09:13.434Z,16.03
2019-01-11T17:11:46.205Z,14.73
2019-01-11T17:14:18.858Z,14.70
2019-01-11T17:16:51.534Z,14.50
2019-01-11T17:19:24.167Z,14.90
2019-01-11T17:21:56.815Z,13.60
2019-01-11T17:24:29.458Z,14.53
2019-01-11T17:27:02.126Z,14.53
2019-01-11T17:29:34.998Z,15.43
2019-01-11T17:32:07.654Z,14.90
2019-01-11T17:34:40.297Z,15.93
2019-01-11T17:37:12.962Z,14.13
2019-01-11T17:39:45.614Z,14.37
2019-01-11T17:42:18.261Z,14.97
2019-01-11T17:44:50.934Z,14.53
2019-01-11T17:47:23.626Z,15.47
2019-01-11T17:50:01.108Z,15.03
2019-01-11T17:52:30.879Z,13.83
2019-01-11T17:55:03.669Z,14.50
2019-01-11T17:57:36.322Z,14.70
2019-01-11T18:00:13.448Z,15.07
2019-01-11T18:02:46.098Z,14.53
2019-01-11T18:05:19.020Z,15.93
2019-01-11T18:07:51.672Z,15.20
2019-01-11T18:10:24.303Z,14.80
2019-01-11T18:12:56.958Z,15.50
2019-01-11T18:15:29.832Z,16.63
2019-01-11T18:18:02.488Z,14.70
2019-01-11T18:20:36.090Z,14.93
2019-01-11T18:23:10.266Z,15.10
2019-01-11T18:25:43.079Z,15.43
2019-01-11T18:28:15.718Z,16.03
2019-01-11T18:30:48.360Z,15.67
2019-01-11T18:33:21.037Z,15.33
2019-01-11T18:35:53.902Z,14.33
2019-01-11T18:38:26.783Z,15.93
2019-01-11T18:40:59.432Z,15.30
2019-01-11T18:43:32.086Z,16.50
2019-01-11T18:46:04.959Z,15.23
2019-01-11T18:48:37.648Z,16.63
2019-01-11T18:51:10.303Z,15.73
2019-01-11T18:53:42.965Z,16.23
2019-01-11T18:56:15.602Z,16.53
2019-01-11T18:58:48.270Z,16.10
2019-01-11T19:01:20.933Z,16.37
2019-01-11T19:03:53.586Z,18.00
2019-01-11T19:06:26.230Z,18.43
2019-01-11T19:08:58.938Z,16.90
2019-01-11T19:11:31.579Z,18.63
2019-01-11T19:14:04.242Z,17.63
2019-01-11T19:16:37.014Z,19.20
2019-01-11T19:19:09.662Z,16.87
2019-01-11T19:21:42.299Z,18.40
2019-01-11T19:24:15.018Z,18.53
2019-01-11T19:26:47.898Z,18.73
2019-01-11T19:29:20.545Z,20.03
2019-01-11T19:31:53.206Z,17.80
2019-01-11T19:34:25.886Z,19.20
2019-01-11T19:36:58.526Z,18.57
2019-01-11T19:39:31.211Z,19.43
2019-01-11T19:42:03.914Z,18.40
2019-01-11T19:44:36.566Z,19.83
2019-01-11T19:47:09.229Z,19.67
2019-01-11T19:49:41.874Z,19.33
2019-01-11T19:52:14.545Z,20.67
2019-01-11T19:54:47.234Z,19.70
2019-01-11T19:57:19.903Z,20.50
2019-01-11T19:59:52.562Z,19.97
2019-01-11T20:02:25.190Z,19.43
2019-01-11T20:04:57.851Z,20.20
2019-01-11T20:07:30.504Z,20.37
2019-01-11T20:10:03.821Z,19.90
2019-01-11T20:12:36.697Z,19.43
2019-01-11T20:15:09.347Z,18.87
2019-01-11T20:17:42.238Z,19.50
2019-01-11T20:20:14.915Z,20.03
2019-01-11T20:22:47.550Z,19.27
2019-01-11T20:25:21.158Z,18.33
2019-01-11T20:27:53.794Z,18.50
2019-01-11T20:30:27.042Z,18.60
2019-01-11T20:32:59.682Z,18.17
2019-01-11T20:35:33.159Z,17.60
2019-01-11T20:38:05.802Z,17.83
2019-01-11T20:40:38.445Z,16.63
2019-01-11T20:43:11.094Z,15.90
2019-01-11T20:45:43.766Z,15.77
2019-01-11T20:48:16.406Z,16.23
2019-01-11T20:50:49.059Z,15.80
2019-01-11T20:53:21.719Z,15.90
2019-01-11T20:55:54.407Z,14.63
2019-01-11T20:58:27.031Z,15.17
2019-01-11T21:00:59.683Z,14.20
2019-01-11T21:03:32.571Z,15.53
2019-01-11T21:06:05.230Z,15.60
2019-01-11T21:08:37.866Z,15.07
2019-01-11T21:11:10.514Z,15.50
2019-01-11T21:13:43.171Z,15.13
2019-01-11T21:16:15.834Z,17.13
2019-01-11T21:18:48.575Z,15.93
2019-01-11T21:21:21.232Z,16.50
2019-01-11T21:23:54.108Z,16.07
2019-01-11T21:26:26.796Z,15.97
2019-01-11T21:28:59.436Z,16.83
2019-01-11T21:31:32.091Z,14.70
2019-01-11T21:34:04.730Z,16.87
2019-01-11T21:36:37.390Z,15.83
2019-01-11T21:39:10.265Z,16.33
2019-01-11T21:41:43.168Z,16.77
2019-01-11T21:44:15.862Z,16.00
2019-01-11T21:46:48.516Z,16.90
2019-01-11T21:49:21.162Z,16.37
2019-01-11T21:51:53.818Z,15.60
2019-01-11T21:54:26.506Z,16.50
2019-01-11T21:56:59.174Z,18.97
2019-01-11T21:59:31.818Z,16.37
2019-01-11T22:02:04.482Z,16.90
2019-01-11T22:04:37.118Z,17.37
2019-01-11T22:07:09.808Z,17.67
2019-01-11T22:09:42.490Z,18.07
2019-01-11T22:12:15.135Z,17.03
2019-01-11T22:14:47.824Z,17.83
2019-01-11T22:17:20.468Z,18.23
2019-01-11T22:19:53.343Z,18.20
2019-01-11T22:22:25.998Z,18.43
2019-01-11T22:24:58.638Z,19.20
2019-01-11T22:27:31.405Z,18.40
2019-01-11T22:30:06.522Z,18.97
2019-01-11T22:32:39.187Z,19.33
2019-01-11T22:35:11.854Z,18.43
2019-01-11T22:37:44.530Z,18.40
2019-01-11T22:40:21.774Z,18.37
2019-01-11T22:42:56.749Z,19.87
2019-01-11T22:45:29.524Z,19.07
2019-01-11T22:48:02.160Z,19.43
2019-01-11T22:50:34.799Z,21.43
2019-01-11T22:53:07.690Z,20.27
2019-01-11T22:55:40.335Z,20.40
2019-01-11T22:58:12.992Z,20.13
2019-01-11T23:01:13.583Z,19.53
2019-01-11T23:03:49.147Z,20.77
2019-01-11T23:06:46.271Z,20.37
2019-01-11T23:09:21.396Z,20.03
2019-01-11T23:12:13.785Z,19.17
2019-01-11T23:14:46.443Z,18.77
2019-01-11T23:17:40.862Z,17.97
2019-01-11T23:20:13.864Z,16.93
2019-01-11T23:22:46.514Z,17.13
2019-01-11T23:25:19.171Z,16.27
2019-01-11T23:27:51.819Z,16.50
2019-01-11T23:30:24.503Z,15.57
2019-01-11T23:32:57.147Z,15.73
2019-01-11T23:35:30.067Z,16.10
2019-01-11T23:38:02.707Z,15.30
